sensor_id;sensor_type;location;lat;lon;timestamp;pressure;altitude;pressure_sealevel;temperature;humidity
16544;BME280;8384;47.996;7.786;2023-02-28T00:00:41;99270.50;;;-0.27;50.20
16544;BME280;8384;47.996;7.786;2023-02-28T00:03:08;99285.25;;;-0.23;50.33
16544;BME280;8384;47.996;7.786;2023-02-28T00:05:33;99290.50;;;-0.30;50.74
16544;BME280;8384;47.996;7.786;2023-02-28T00:07:59;99268.97;;;-0.53;51.41
16544;BME280;8384;47.996;7.786;2023-02-28T00:10:28;99284.16;;;-0.37;51.06
16544;BME280;8384;47.996;7.786;2023-02-28T00:12:59;99294.94;;;-0.46;51.78
16544;BME280;8384;47.996;7.786;2023-02-28T00:15:25;99272.19;;;-0.58;51.55
16544;BME280;8384;47.996;7.786;2023-02-28T00:17:50;99291.00;;;-0.35;51.72
16544;BME280;8384;47.996;7.786;2023-02-28T00:20:16;99298.91;;;-0.33;51.48
16544;BME280;8384;47.996;7.786;2023-02-28T00:22:44;99287.97;;;-0.32;51.15
16544;BME280;8384;47.996;7.786;2023-02-28T00:25:11;99290.00;;;-0.34;51.27
16544;BME280;8384;47.996;7.786;2023-02-28T00:27:38;99299.41;;;-0.38;51.53
16544;BME280;8384;47.996;7.786;2023-02-28T00:30:05;99294.78;;;-0.44;51.31
16544;BME280;8384;47.996;7.786;2023-02-28T00:32:31;99269.22;;;-0.71;51.97
16544;BME280;8384;47.996;7.786;2023-02-28T00:34:56;99291.50;;;-0.63;52.75
16544;BME280;8384;47.996;7.786;2023-02-28T00:37:22;99290.47;;;-0.62;52.60
16544;BME280;8384;47.996;7.786;2023-02-28T00:39:47;99271.56;;;-0.68;52.90
16544;BME280;8384;47.996;7.786;2023-02-28T00:42:12;99290.31;;;-0.60;53.01
16544;BME280;8384;47.996;7.786;2023-02-28T00:44:38;99262.00;;;-0.71;52.33
16544;BME280;8384;47.996;7.786;2023-02-28T00:47:03;99281.06;;;-0.57;52.13
16544;BME280;8384;47.996;7.786;2023-02-28T00:49:29;99287.63;;;-0.60;52.49
16544;BME280;8384;47.996;7.786;2023-02-28T00:51:55;99284.44;;;-0.64;53.27
16544;BME280;8384;47.996;7.786;2023-02-28T00:54:21;99285.25;;;-0.55;53.12
16544;BME280;8384;47.996;7.786;2023-02-28T00:56:46;99281.06;;;-0.57;53.17
16544;BME280;8384;47.996;7.786;2023-02-28T00:59:16;99288.66;;;-0.61;53.47
16544;BME280;8384;47.996;7.786;2023-02-28T01:01:43;99259.84;;;-0.76;53.60
16544;BME280;8384;47.996;7.786;2023-02-28T01:04:09;99265.38;;;-0.69;53.35
16544;BME280;8384;47.996;7.786;2023-02-28T01:06:34;99286.94;;;-0.54;53.14
16544;BME280;8384;47.996;7.786;2023-02-28T01:09:00;99280.38;;;-0.51;52.88
16544;BME280;8384;47.996;7.786;2023-02-28T01:11:26;99255.56;;;-0.62;53.25
16544;BME280;8384;47.996;7.786;2023-02-28T01:13:51;99274.09;;;-0.43;52.97
16544;BME280;8384;47.996;7.786;2023-02-28T01:16:17;99276.81;;;-0.52;52.34
16544;BME280;8384;47.996;7.786;2023-02-28T01:18:42;99275.03;;;-0.59;53.27
16544;BME280;8384;47.996;7.786;2023-02-28T01:21:11;99269.00;;;-0.62;53.16
16544;BME280;8384;47.996;7.786;2023-02-28T01:23:39;99266.66;;;-0.65;52.90
16544;BME280;8384;47.996;7.786;2023-02-28T01:26:12;99249.75;;;-0.73;54.06
16544;BME280;8384;47.996;7.786;2023-02-28T01:28:38;99262.94;;;-0.55;53.37
16544;BME280;8384;47.996;7.786;2023-02-28T01:31:03;99270.06;;;-0.71;53.39
16544;BME280;8384;47.996;7.786;2023-02-28T01:33:29;99264.69;;;-0.71;53.80
16544;BME280;8384;47.996;7.786;2023-02-28T01:36:22;99268.41;;;-0.80;54.40
16544;BME280;8384;47.996;7.786;2023-02-28T01:38:48;99268.75;;;-0.83;54.04
16544;BME280;8384;47.996;7.786;2023-02-28T01:41:22;99265.94;;;-0.82;54.42
16544;BME280;8384;47.996;7.786;2023-02-28T01:46:13;99273.44;;;-0.77;54.72
16544;BME280;8384;47.996;7.786;2023-02-28T01:48:56;99269.09;;;-0.78;54.47
16544;BME280;8384;47.996;7.786;2023-02-28T01:51:33;99269.44;;;-0.81;54.62
16544;BME280;8384;47.996;7.786;2023-02-28T01:54:03;99251.22;;;-1.02;54.70
16544;BME280;8384;47.996;7.786;2023-02-28T01:56:33;99261.75;;;-0.93;54.82
16544;BME280;8384;47.996;7.786;2023-02-28T01:58:59;99241.66;;;-0.97;55.10
16544;BME280;8384;47.996;7.786;2023-02-28T02:01:26;99232.09;;;-0.99;55.01
16544;BME280;8384;47.996;7.786;2023-02-28T02:03:57;99237.66;;;-1.01;54.88
16544;BME280;8384;47.996;7.786;2023-02-28T02:06:37;99232.94;;;-0.99;54.91
16544;BME280;8384;47.996;7.786;2023-02-28T02:09:03;99244.00;;;-0.94;55.20
16544;BME280;8384;47.996;7.786;2023-02-28T02:11:29;99246.50;;;-0.92;55.51
16544;BME280;8384;47.996;7.786;2023-02-28T02:16:56;99247.31;;;-0.92;56.21
16544;BME280;8384;47.996;7.786;2023-02-28T02:23:07;99233.31;;;-1.10;57.03
16544;BME280;8384;47.996;7.786;2023-02-28T02:25:45;99235.66;;;-1.07;57.32
16544;BME280;8384;47.996;7.786;2023-02-28T02:31:24;99234.16;;;-1.10;58.11
16544;BME280;8384;47.996;7.786;2023-02-28T02:36:34;99234.91;;;-1.32;59.63
16544;BME280;8384;47.996;7.786;2023-02-28T02:39:23;99237.44;;;-1.39;60.03
16544;BME280;8384;47.996;7.786;2023-02-28T02:41:53;99238.47;;;-1.48;60.30
16544;BME280;8384;47.996;7.786;2023-02-28T02:44:31;99234.47;;;-1.61;60.72
16544;BME280;8384;47.996;7.786;2023-02-28T02:47:06;99204.50;;;-1.73;61.15
16544;BME280;8384;47.996;7.786;2023-02-28T02:49:33;99239.34;;;-1.64;61.76
16544;BME280;8384;47.996;7.786;2023-02-28T02:52:05;99212.72;;;-1.83;61.69
16544;BME280;8384;47.996;7.786;2023-02-28T02:54:35;99229.47;;;-1.72;62.15
16544;BME280;8384;47.996;7.786;2023-02-28T02:57:06;99229.47;;;-1.72;62.66
16544;BME280;8384;47.996;7.786;2023-02-28T02:59:35;99202.81;;;-1.82;62.58
16544;BME280;8384;47.996;7.786;2023-02-28T03:02:04;99222.91;;;-1.70;62.47
16544;BME280;8384;47.996;7.786;2023-02-28T03:04:34;99189.63;;;-1.92;62.52
16544;BME280;8384;47.996;7.786;2023-02-28T03:07:03;99207.03;;;-1.88;62.64
16544;BME280;8384;47.996;7.786;2023-02-28T03:09:28;99215.75;;;-1.86;62.72
16544;BME280;8384;47.996;7.786;2023-02-28T03:11:57;99228.63;;;-1.73;62.71
16544;BME280;8384;47.996;7.786;2023-02-28T03:22:45;99233.31;;;-1.75;63.08
16544;BME280;8384;47.996;7.786;2023-02-28T03:28:19;99231.63;;;-1.68;63.65
16544;BME280;8384;47.996;7.786;2023-02-28T03:30:58;99227.75;;;-1.57;63.34
16544;BME280;8384;47.996;7.786;2023-02-28T03:33:29;99217.38;;;-1.68;62.74
16544;BME280;8384;47.996;7.786;2023-02-28T03:35:59;99226.75;;;-1.64;63.08
16544;BME280;8384;47.996;7.786;2023-02-28T03:38:31;99225.09;;;-1.65;63.34
16544;BME280;8384;47.996;7.786;2023-02-28T03:41:05;99220.41;;;-1.71;63.88
16544;BME280;8384;47.996;7.786;2023-02-28T03:43:35;99216.41;;;-1.84;63.59
16544;BME280;8384;47.996;7.786;2023-02-28T03:46:03;99228.63;;;-1.81;64.33
16544;BME280;8384;47.996;7.786;2023-02-28T03:48:37;99202.53;;;-1.96;64.54
16544;BME280;8384;47.996;7.786;2023-02-28T03:51:08;99192.31;;;-2.00;64.80
16544;BME280;8384;47.996;7.786;2023-02-28T03:53:37;99198.50;;;-1.91;64.63
16544;BME280;8384;47.996;7.786;2023-02-28T03:56:09;99230.13;;;-1.70;64.62
16544;BME280;8384;47.996;7.786;2023-02-28T03:59:06;99237.66;;;-1.74;64.85
16544;BME280;8384;47.996;7.786;2023-02-28T04:01:40;99230.97;;;-1.70;64.86
16544;BME280;8384;47.996;7.786;2023-02-28T04:04:07;99229.47;;;-1.81;65.38
16544;BME280;8384;47.996;7.786;2023-02-28T04:06:34;99202.03;;;-1.99;65.79
16544;BME280;8384;47.996;7.786;2023-02-28T04:09:00;99228.28;;;-1.78;65.60
16544;BME280;8384;47.996;7.786;2023-02-28T04:11:36;99217.06;;;-1.90;65.80
16544;BME280;8384;47.996;7.786;2023-02-28T04:14:04;99212.25;;;-1.86;65.30
16544;BME280;8384;47.996;7.786;2023-02-28T04:16:30;99231.81;;;-1.77;66.07
16544;BME280;8384;47.996;7.786;2023-02-28T04:18:56;99227.13;;;-1.84;66.15
16544;BME280;8384;47.996;7.786;2023-02-28T04:21:33;99242.69;;;-1.71;66.60
16544;BME280;8384;47.996;7.786;2023-02-28T04:23:59;99222.59;;;-1.83;65.74
16544;BME280;8384;47.996;7.786;2023-02-28T04:26:28;99225.97;;;-1.89;66.15
16544;BME280;8384;47.996;7.786;2023-02-28T04:28:54;99217.56;;;-1.78;65.83
16544;BME280;8384;47.996;7.786;2023-02-28T04:31:20;99211.91;;;-1.91;65.91
16544;BME280;8384;47.996;7.786;2023-02-28T04:33:45;99219.38;;;-1.70;65.76
16544;BME280;8384;47.996;7.786;2023-02-28T04:36:10;99221.25;;;-1.62;65.91
16544;BME280;8384;47.996;7.786;2023-02-28T04:38:37;99228.13;;;-1.76;66.59
16544;BME280;8384;47.996;7.786;2023-02-28T04:41:04;99250.22;;;-1.66;66.71
16544;BME280;8384;47.996;7.786;2023-02-28T04:43:30;99223.44;;;-1.74;66.65
16544;BME280;8384;47.996;7.786;2023-02-28T04:45:58;99245.03;;;-1.68;66.31
16544;BME280;8384;47.996;7.786;2023-02-28T04:48:27;99256.56;;;-1.59;66.58
16544;BME280;8384;47.996;7.786;2023-02-28T04:50:53;99264.44;;;-1.57;67.72
16544;BME280;8384;47.996;7.786;2023-02-28T04:53:18;99215.75;;;-1.94;67.90
16544;BME280;8384;47.996;7.786;2023-02-28T04:55:44;99250.16;;;-1.41;66.47
16544;BME280;8384;47.996;7.786;2023-02-28T04:58:10;99261.91;;;-1.34;66.64
16544;BME280;8384;47.996;7.786;2023-02-28T05:00:35;99251.50;;;-1.37;66.02
16544;BME280;8384;47.996;7.786;2023-02-28T05:03:01;99228.44;;;-1.55;66.14
16544;BME280;8384;47.996;7.786;2023-02-28T05:05:26;99255.34;;;-1.31;65.85
16544;BME280;8384;47.996;7.786;2023-02-28T05:07:51;99254.38;;;-1.39;66.62
16544;BME280;8384;47.996;7.786;2023-02-28T05:10:18;99246.47;;;-1.40;65.91
16544;BME280;8384;47.996;7.786;2023-02-28T05:12:44;99228.75;;;-1.49;66.05
16544;BME280;8384;47.996;7.786;2023-02-28T05:15:12;99258.84;;;-1.23;65.33
16544;BME280;8384;47.996;7.786;2023-02-28T05:17:38;99255.50;;;-1.25;65.10
16544;BME280;8384;47.996;7.786;2023-02-28T05:20:03;99231.03;;;-1.30;65.13
16544;BME280;8384;47.996;7.786;2023-02-28T05:22:30;99265.38;;;-1.25;65.17
16544;BME280;8384;47.996;7.786;2023-02-28T05:24:55;99270.94;;;-1.35;66.20
16544;BME280;8384;47.996;7.786;2023-02-28T05:27:20;99275.78;;;-1.22;65.17
16544;BME280;8384;47.996;7.786;2023-02-28T05:29:45;99270.41;;;-1.22;65.98
16544;BME280;8384;47.996;7.786;2023-02-28T05:32:12;99236.75;;;-1.33;65.77
16544;BME280;8384;47.996;7.786;2023-02-28T05:34:38;99242.97;;;-1.49;66.76
16544;BME280;8384;47.996;7.786;2023-02-28T05:37:05;99259.88;;;-1.32;67.86
16544;BME280;8384;47.996;7.786;2023-02-28T05:39:30;99259.88;;;-1.24;67.96
16544;BME280;8384;47.996;7.786;2023-02-28T05:41:55;99276.56;;;-0.97;66.25
16544;BME280;8384;47.996;7.786;2023-02-28T05:44:21;99232.59;;;-1.44;67.81
16544;BME280;8384;47.996;7.786;2023-02-28T05:46:46;99282.34;;;-1.25;68.51
16544;BME280;8384;47.996;7.786;2023-02-28T05:49:11;99249.16;;;-1.32;69.10
16544;BME280;8384;47.996;7.786;2023-02-28T05:51:36;99279.19;;;-1.37;70.18
16544;BME280;8384;47.996;7.786;2023-02-28T05:54:05;99266.94;;;-1.39;70.84
16544;BME280;8384;47.996;7.786;2023-02-28T05:56:31;99277.66;;;-1.39;72.04
16544;BME280;8384;47.996;7.786;2023-02-28T05:58:56;99280.38;;;-1.47;73.09
16544;BME280;8384;47.996;7.786;2023-02-28T06:01:42;99272.63;;;-1.26;72.13
16544;BME280;8384;47.996;7.786;2023-02-28T06:04:13;99251.19;;;-1.42;71.84
16544;BME280;8384;47.996;7.786;2023-02-28T06:06:42;99255.72;;;-1.51;73.22
16544;BME280;8384;47.996;7.786;2023-02-28T06:09:08;99247.72;;;-1.68;74.42
16544;BME280;8384;47.996;7.786;2023-02-28T06:11:33;99271.66;;;-1.58;74.33
16544;BME280;8384;47.996;7.786;2023-02-28T06:13:59;99281.38;;;-1.48;74.55
16544;BME280;8384;47.996;7.786;2023-02-28T06:16:26;99281.72;;;-1.60;74.71
16544;BME280;8384;47.996;7.786;2023-02-28T06:18:52;99246.72;;;-1.75;75.35
16544;BME280;8384;47.996;7.786;2023-02-28T06:21:23;99249.06;;;-1.80;75.43
16544;BME280;8384;47.996;7.786;2023-02-28T06:23:49;99271.19;;;-1.86;76.33
16544;BME280;8384;47.996;7.786;2023-02-28T06:26:14;99289.09;;;-1.78;77.18
16544;BME280;8384;47.996;7.786;2023-02-28T06:28:39;99297.13;;;-1.87;78.02
16544;BME280;8384;47.996;7.786;2023-02-28T06:31:07;99273.34;;;-1.90;77.15
16544;BME280;8384;47.996;7.786;2023-02-28T06:33:33;99272.53;;;-1.90;77.33
16544;BME280;8384;47.996;7.786;2023-02-28T06:35:58;99288.44;;;-1.81;77.86
16544;BME280;8384;47.996;7.786;2023-02-28T06:38:24;99288.41;;;-1.89;78.49
16544;BME280;8384;47.996;7.786;2023-02-28T06:40:56;99282.91;;;-1.87;78.41
16544;BME280;8384;47.996;7.786;2023-02-28T06:43:22;99302.34;;;-1.60;77.59
16544;BME280;8384;47.996;7.786;2023-02-28T06:45:48;99306.31;;;-1.56;78.04
16544;BME280;8384;47.996;7.786;2023-02-28T06:48:13;99302.50;;;-1.54;77.40
16544;BME280;8384;47.996;7.786;2023-02-28T06:50:38;99309.53;;;-1.61;78.23
16544;BME280;8384;47.996;7.786;2023-02-28T06:53:04;99309.34;;;-1.76;77.97
16544;BME280;8384;47.996;7.786;2023-02-28T06:55:29;99306.66;;;-1.51;77.14
16544;BME280;8384;47.996;7.786;2023-02-28T06:57:54;99296.13;;;-1.86;76.91
16544;BME280;8384;47.996;7.786;2023-02-28T07:00:20;99289.09;;;-1.87;77.47
16544;BME280;8384;47.996;7.786;2023-02-28T07:02:46;99317.56;;;-1.69;77.59
16544;BME280;8384;47.996;7.786;2023-02-28T07:05:12;99307.84;;;-1.70;77.26
16544;BME280;8384;47.996;7.786;2023-02-28T07:07:37;99304.00;;;-1.68;77.58
16544;BME280;8384;47.996;7.786;2023-02-28T07:10:05;99253.59;;;-1.72;76.47
16544;BME280;8384;47.996;7.786;2023-02-28T07:12:31;99321.22;;;-1.37;75.34
16544;BME280;8384;47.996;7.786;2023-02-28T07:14:56;99308.00;;;-1.55;75.67
16544;BME280;8384;47.996;7.786;2023-02-28T07:17:22;99303.66;;;-1.73;76.00
16544;BME280;8384;47.996;7.786;2023-02-28T07:19:47;99286.41;;;-1.70;76.05
16544;BME280;8384;47.996;7.786;2023-02-28T07:22:12;99295.28;;;-1.53;75.10
16544;BME280;8384;47.996;7.786;2023-02-28T07:24:37;99329.28;;;-1.29;74.37
16544;BME280;8384;47.996;7.786;2023-02-28T07:27:03;99276.69;;;-1.63;74.03
16544;BME280;8384;47.996;7.786;2023-02-28T07:29:28;99322.25;;;-1.38;74.29
16544;BME280;8384;47.996;7.786;2023-02-28T07:31:54;99295.13;;;-1.60;74.44
16544;BME280;8384;47.996;7.786;2023-02-28T07:34:20;99303.31;;;-1.37;73.50
16544;BME280;8384;47.996;7.786;2023-02-28T07:36:45;99301.63;;;-1.46;73.49
16544;BME280;8384;47.996;7.786;2023-02-28T07:39:10;99325.59;;;-1.19;72.95
16544;BME280;8384;47.996;7.786;2023-02-28T07:41:36;99314.19;;;-1.38;72.96
16544;BME280;8384;47.996;7.786;2023-02-28T07:44:08;99304.16;;;-1.53;72.56
16544;BME280;8384;47.996;7.786;2023-02-28T07:46:34;99323.75;;;-1.36;72.75
16544;BME280;8384;47.996;7.786;2023-02-28T07:49:00;99336.47;;;-1.21;72.65
16544;BME280;8384;47.996;7.786;2023-02-28T07:51:30;99320.84;;;-1.09;72.75
16544;BME280;8384;47.996;7.786;2023-02-28T07:53:56;99339.56;;;-0.93;71.72
16544;BME280;8384;47.996;7.786;2023-02-28T07:56:22;99335.72;;;-0.90;70.67
16544;BME280;8384;47.996;7.786;2023-02-28T07:58:47;99307.75;;;-1.04;70.52
16544;BME280;8384;47.996;7.786;2023-02-28T08:01:13;99335.38;;;-0.87;70.76
16544;BME280;8384;47.996;7.786;2023-02-28T08:03:39;99338.91;;;-0.86;70.82
16544;BME280;8384;47.996;7.786;2023-02-28T08:06:07;99323.13;;;-0.89;70.60
16544;BME280;8384;47.996;7.786;2023-02-28T08:08:33;99331.50;;;-0.76;70.35
16544;BME280;8384;47.996;7.786;2023-02-28T08:11:00;99313.03;;;-0.79;69.49
16544;BME280;8384;47.996;7.786;2023-02-28T08:13:26;99339.88;;;-0.71;68.73
16544;BME280;8384;47.996;7.786;2023-02-28T08:15:53;99314.13;;;-0.57;67.95
16544;BME280;8384;47.996;7.786;2023-02-28T08:18:19;99317.16;;;-0.28;67.78
16544;BME280;8384;47.996;7.786;2023-02-28T08:20:44;99322.91;;;0.00;65.91
16544;BME280;8384;47.996;7.786;2023-02-28T08:23:09;99336.56;;;0.13;65.44
16544;BME280;8384;47.996;7.786;2023-02-28T08:25:35;99331.22;;;-0.18;65.94
16544;BME280;8384;47.996;7.786;2023-02-28T08:28:00;99342.44;;;-0.14;66.13
16544;BME280;8384;47.996;7.786;2023-02-28T08:30:25;99326.09;;;-0.28;65.97
16544;BME280;8384;47.996;7.786;2023-02-28T08:32:50;99345.56;;;-0.03;66.36
16544;BME280;8384;47.996;7.786;2023-02-28T08:35:16;99340.97;;;-0.17;65.60
16544;BME280;8384;47.996;7.786;2023-02-28T08:37:41;99317.09;;;-0.52;65.96
16544;BME280;8384;47.996;7.786;2023-02-28T08:40:07;99330.25;;;-0.25;66.32
16544;BME280;8384;47.996;7.786;2023-02-28T08:42:32;99330.88;;;0.08;65.22
16544;BME280;8384;47.996;7.786;2023-02-28T08:44:58;99335.16;;;-0.06;65.28
16544;BME280;8384;47.996;7.786;2023-02-28T08:47:23;99312.69;;;-0.13;65.11
16544;BME280;8384;47.996;7.786;2023-02-28T08:49:48;99354.25;;;0.08;65.13
16544;BME280;8384;47.996;7.786;2023-02-28T08:52:14;99346.00;;;0.09;64.72
16544;BME280;8384;47.996;7.786;2023-02-28T08:54:39;99306.69;;;-0.15;64.68
16544;BME280;8384;47.996;7.786;2023-02-28T08:57:05;99367.41;;;0.26;65.66
16544;BME280;8384;47.996;7.786;2023-02-28T08:59:30;99321.56;;;-0.04;64.93
16544;BME280;8384;47.996;7.786;2023-02-28T09:01:55;99361.22;;;0.17;64.41
16544;BME280;8384;47.996;7.786;2023-02-28T09:04:21;99328.72;;;0.04;64.78
16544;BME280;8384;47.996;7.786;2023-02-28T09:06:47;99329.88;;;-0.14;64.74
16544;BME280;8384;47.996;7.786;2023-02-28T09:09:13;99370.69;;;0.36;64.56
16544;BME280;8384;47.996;7.786;2023-02-28T09:11:39;99335.59;;;0.29;63.81
16544;BME280;8384;47.996;7.786;2023-02-28T09:14:04;99362.06;;;0.41;62.73
16544;BME280;8384;47.996;7.786;2023-02-28T09:16:31;99366.31;;;0.58;63.10
16544;BME280;8384;47.996;7.786;2023-02-28T09:18:56;99334.03;;;0.58;61.36
16544;BME280;8384;47.996;7.786;2023-02-28T09:21:22;99364.41;;;0.82;62.63
16544;BME280;8384;47.996;7.786;2023-02-28T09:23:49;99349.22;;;0.89;62.44
16544;BME280;8384;47.996;7.786;2023-02-28T09:28:41;99334.19;;;1.40;60.16
16544;BME280;8384;47.996;7.786;2023-02-28T09:31:06;99344.50;;;1.88;58.49
16544;BME280;8384;47.996;7.786;2023-02-28T09:33:31;99313.97;;;2.03;57.02
16544;BME280;8384;47.996;7.786;2023-02-28T09:35:59;99345.69;;;2.01;55.34
16544;BME280;8384;47.996;7.786;2023-02-28T09:38:25;99364.78;;;2.43;55.32
16544;BME280;8384;47.996;7.786;2023-02-28T09:40:57;99376.81;;;2.90;54.50
16544;BME280;8384;47.996;7.786;2023-02-28T09:43:25;99376.31;;;3.02;51.11
16544;BME280;8384;47.996;7.786;2023-02-28T09:46:14;99374.56;;;3.22;50.65
16544;BME280;8384;47.996;7.786;2023-02-28T09:48:46;99365.91;;;3.75;49.76
16544;BME280;8384;47.996;7.786;2023-02-28T09:53:57;99356.72;;;4.45;46.94
16544;BME280;8384;47.996;7.786;2023-02-28T09:56:36;99366.75;;;4.45;46.46
16544;BME280;8384;47.996;7.786;2023-02-28T09:59:31;99351.53;;;4.57;45.85
16544;BME280;8384;47.996;7.786;2023-02-28T10:04:59;99370.75;;;4.76;45.94
16544;BME280;8384;47.996;7.786;2023-02-28T10:07:53;99373.66;;;4.88;45.76
16544;BME280;8384;47.996;7.786;2023-02-28T10:10:34;99346.97;;;4.64;45.68
16544;BME280;8384;47.996;7.786;2023-02-28T10:13:06;99350.31;;;4.87;45.06
16544;BME280;8384;47.996;7.786;2023-02-28T10:15:38;99367.56;;;5.26;44.64
16544;BME280;8384;47.996;7.786;2023-02-28T10:18:05;99358.91;;;5.63;43.26
16544;BME280;8384;47.996;7.786;2023-02-28T10:20:39;99374.19;;;6.09;43.62
16544;BME280;8384;47.996;7.786;2023-02-28T10:23:14;99373.84;;;6.38;41.22
16544;BME280;8384;47.996;7.786;2023-02-28T10:25:44;99364.13;;;6.55;41.17
16544;BME280;8384;47.996;7.786;2023-02-28T10:28:15;99360.94;;;6.26;42.13
16544;BME280;8384;47.996;7.786;2023-02-28T10:30:43;99385.41;;;6.58;41.35
16544;BME280;8384;47.996;7.786;2023-02-28T10:33:31;99383.66;;;7.22;40.09
16544;BME280;8384;47.996;7.786;2023-02-28T10:35:58;99383.84;;;7.83;39.75
16544;BME280;8384;47.996;7.786;2023-02-28T10:38:38;99378.34;;;7.52;39.15
16544;BME280;8384;47.996;7.786;2023-02-28T10:41:26;99384.81;;;7.70;38.84
16544;BME280;8384;47.996;7.786;2023-02-28T10:43:49;99368.19;;;7.96;38.68
16544;BME280;8384;47.996;7.786;2023-02-28T10:46:16;99369.78;;;7.86;38.07
16544;BME280;8384;47.996;7.786;2023-02-28T10:49:01;99380.59;;;7.92;38.27
16544;BME280;8384;47.996;7.786;2023-02-28T10:51:34;99377.66;;;7.94;38.53
16544;BME280;8384;47.996;7.786;2023-02-28T10:54:02;99382.09;;;8.56;37.68
16544;BME280;8384;47.996;7.786;2023-02-28T10:56:28;99385.28;;;8.04;36.78
16544;BME280;8384;47.996;7.786;2023-02-28T11:01:41;99391.78;;;8.03;37.69
16544;BME280;8384;47.996;7.786;2023-02-28T11:06:43;99389.50;;;7.44;38.72
16544;BME280;8384;47.996;7.786;2023-02-28T11:09:50;99380.00;;;7.90;38.25
16544;BME280;8384;47.996;7.786;2023-02-28T11:14:49;99374.91;;;7.57;38.71
16544;BME280;8384;47.996;7.786;2023-02-28T11:17:24;99386.25;;;8.09;38.41
16544;BME280;8384;47.996;7.786;2023-02-28T11:19:55;99382.44;;;8.29;37.48
16544;BME280;8384;47.996;7.786;2023-02-28T11:22:25;99360.59;;;8.48;37.57
16544;BME280;8384;47.996;7.786;2023-02-28T11:24:55;99383.97;;;8.55;36.68
16544;BME280;8384;47.996;7.786;2023-02-28T11:29:56;99383.16;;;7.50;38.41
16544;BME280;8384;47.996;7.786;2023-02-28T11:32:24;99391.22;;;7.38;39.01
16544;BME280;8384;47.996;7.786;2023-02-28T11:37:34;99391.41;;;7.99;38.40
16544;BME280;8384;47.996;7.786;2023-02-28T11:39:59;99371.38;;;7.75;38.79
16544;BME280;8384;47.996;7.786;2023-02-28T11:42:44;99368.94;;;8.34;37.64
16544;BME280;8384;47.996;7.786;2023-02-28T11:45:36;99392.88;;;8.32;37.45
16544;BME280;8384;47.996;7.786;2023-02-28T11:50:48;99381.84;;;8.08;37.17
16544;BME280;8384;47.996;7.786;2023-02-28T11:56:24;99386.41;;;7.96;37.83
16544;BME280;8384;47.996;7.786;2023-02-28T12:01:38;99369.22;;;6.38;40.14
16544;BME280;8384;47.996;7.786;2023-02-28T12:04:52;99384.09;;;5.90;42.94
16544;BME280;8384;47.996;7.786;2023-02-28T12:07:21;99376.91;;;6.09;41.38
16544;BME280;8384;47.996;7.786;2023-02-28T12:10:29;99363.06;;;6.56;41.51
16544;BME280;8384;47.996;7.786;2023-02-28T12:16:16;99369.72;;;7.11;40.88
16544;BME280;8384;47.996;7.786;2023-02-28T12:21:34;99383.16;;;7.69;39.02
16544;BME280;8384;47.996;7.786;2023-02-28T12:26:47;99372.56;;;7.23;39.73
16544;BME280;8384;47.996;7.786;2023-02-28T12:29:28;99381.09;;;6.12;41.00
16544;BME280;8384;47.996;7.786;2023-02-28T12:32:07;99378.53;;;6.24;42.26
16544;BME280;8384;47.996;7.786;2023-02-28T12:34:41;99376.59;;;6.63;41.62
16544;BME280;8384;47.996;7.786;2023-02-28T12:37:19;99376.44;;;6.83;41.21
16544;BME280;8384;47.996;7.786;2023-02-28T12:39:51;99372.06;;;6.50;41.30
16544;BME280;8384;47.996;7.786;2023-02-28T12:42:30;99349.41;;;6.38;41.65
16544;BME280;8384;47.996;7.786;2023-02-28T12:44:59;99358.59;;;6.37;41.81
16544;BME280;8384;47.996;7.786;2023-02-28T12:47:26;99351.25;;;6.44;41.47
16544;BME280;8384;47.996;7.786;2023-02-28T12:50:11;99360.91;;;6.65;41.54
16544;BME280;8384;47.996;7.786;2023-02-28T12:55:43;99350.88;;;7.16;40.33
16544;BME280;8384;47.996;7.786;2023-02-28T12:58:36;99294.03;;;6.64;40.13
16544;BME280;8384;47.996;7.786;2023-02-28T13:01:17;99332.91;;;7.15;39.73
16544;BME280;8384;47.996;7.786;2023-02-28T13:04:12;99340.78;;;7.24;40.56
16544;BME280;8384;47.996;7.786;2023-02-28T13:09:33;99322.41;;;7.75;39.49
16544;BME280;8384;47.996;7.786;2023-02-28T13:11:58;99343.63;;;8.03;38.88
16544;BME280;8384;47.996;7.786;2023-02-28T13:14:36;99299.94;;;8.10;38.17
16544;BME280;8384;47.996;7.786;2023-02-28T13:24:55;99341.25;;;8.07;38.69
16544;BME280;8384;47.996;7.786;2023-02-28T13:27:36;99353.63;;;7.72;38.18
16544;BME280;8384;47.996;7.786;2023-02-28T13:49:28;99360.34;;;6.56;40.85
16544;BME280;8384;47.996;7.786;2023-02-28T13:57:41;99337.84;;;6.17;42.27
16544;BME280;8384;47.996;7.786;2023-02-28T14:05:40;99337.31;;;5.43;44.64
16544;BME280;8384;47.996;7.786;2023-02-28T14:08:12;99341.25;;;5.40;44.90
16544;BME280;8384;47.996;7.786;2023-02-28T14:10:44;99363.06;;;5.72;44.59
16544;BME280;8384;47.996;7.786;2023-02-28T14:13:40;99365.28;;;5.89;45.13
16544;BME280;8384;47.996;7.786;2023-02-28T14:16:11;99367.81;;;5.83;43.71
16544;BME280;8384;47.996;7.786;2023-02-28T14:18:42;99373.78;;;5.40;45.15
16544;BME280;8384;47.996;7.786;2023-02-28T14:29:26;99375.31;;;4.95;47.56
16544;BME280;8384;47.996;7.786;2023-02-28T14:32:02;99382.59;;;5.08;47.09
16544;BME280;8384;47.996;7.786;2023-02-28T14:34:39;99374.91;;;4.78;47.56
16544;BME280;8384;47.996;7.786;2023-02-28T14:37:11;99361.22;;;4.04;49.48
16544;BME280;8384;47.996;7.786;2023-02-28T14:39:41;99370.75;;;3.94;49.39
16544;BME280;8384;47.996;7.786;2023-02-28T14:42:27;99359.50;;;3.83;49.40
16544;BME280;8384;47.996;7.786;2023-02-28T14:44:54;99363.28;;;4.02;49.13
16544;BME280;8384;47.996;7.786;2023-02-28T14:47:23;99371.13;;;3.77;50.27
16544;BME280;8384;47.996;7.786;2023-02-28T14:49:50;99357.97;;;3.67;50.88
16544;BME280;8384;47.996;7.786;2023-02-28T14:52:24;99358.00;;;3.74;49.66
16544;BME280;8384;47.996;7.786;2023-02-28T14:54:55;99364.56;;;4.07;49.15
16544;BME280;8384;47.996;7.786;2023-02-28T14:57:29;99355.47;;;4.28;49.28
16544;BME280;8384;47.996;7.786;2023-02-28T15:00:14;99324.22;;;4.25;48.88
16544;BME280;8384;47.996;7.786;2023-02-28T15:02:40;99376.34;;;4.74;47.72
16544;BME280;8384;47.996;7.786;2023-02-28T15:07:34;99365.81;;;4.11;48.96
16544;BME280;8384;47.996;7.786;2023-02-28T15:10:20;99373.06;;;3.97;49.71
16544;BME280;8384;47.996;7.786;2023-02-28T15:13:09;99368.91;;;3.94;50.12
16544;BME280;8384;47.996;7.786;2023-02-28T15:15:49;99347.84;;;3.83;49.51
16544;BME280;8384;47.996;7.786;2023-02-28T15:21:23;99357.25;;;3.45;50.82
16544;BME280;8384;47.996;7.786;2023-02-28T15:23:53;99370.81;;;3.58;51.04
16544;BME280;8384;47.996;7.786;2023-02-28T15:26:22;99345.41;;;3.53;50.52
16544;BME280;8384;47.996;7.786;2023-02-28T15:28:58;99365.09;;;3.75;50.11
16544;BME280;8384;47.996;7.786;2023-02-28T15:31:31;99354.69;;;3.85;49.34